sensor_id;sensor_type;location;lat;lon;timestamp;P1;durP1;ratioP1;P2;durP2;ratioP2
32319;SDS011;19080;51.750;5.888;2022-12-19T00:01:33;53.78;;;28.98;;
32319;SDS011;19080;51.750;5.888;2022-12-19T00:04:03;52.17;;;27.63;;
32319;SDS011;19080;51.750;5.888;2022-12-19T00:06:34;48.97;;;27.15;;
32319;SDS011;19080;51.750;5.888;2022-12-19T00:09:03;48.33;;;27.35;;
32319;SDS011;19080;51.750;5.888;2022-12-19T00:11:30;56.67;;;29.42;;
32319;SDS011;19080;51.750;5.888;2022-12-19T00:13:58;51.60;;;28.35;;
32319;SDS011;19080;51.750;5.888;2022-12-19T00:16:26;50.05;;;27.67;;
32319;SDS011;19080;51.750;5.888;2022-12-19T00:18:56;51.03;;;27.33;;
32319;SDS011;19080;51.750;5.888;2022-12-19T00:21:25;52.90;;;26.60;;
32319;SDS011;19080;51.750;5.888;2022-12-19T00:23:53;50.67;;;27.80;;
32319;SDS011;19080;51.750;5.888;2022-12-19T00:28:50;49.65;;;27.92;;
32319;SDS011;19080;51.750;5.888;2022-12-19T00:31:18;56.55;;;28.13;;
32319;SDS011;19080;51.750;5.888;2022-12-19T00:33:46;59.05;;;29.48;;
32319;SDS011;19080;51.750;5.888;2022-12-19T00:36:18;53.38;;;29.15;;
32319;SDS011;19080;51.750;5.888;2022-12-19T00:38:48;52.05;;;28.48;;
32319;SDS011;19080;51.750;5.888;2022-12-19T00:41:24;58.58;;;29.08;;
32319;SDS011;19080;51.750;5.888;2022-12-19T00:43:58;52.13;;;28.60;;
32319;SDS011;19080;51.750;5.888;2022-12-19T00:46:26;51.30;;;28.50;;
32319;SDS011;19080;51.750;5.888;2022-12-19T00:48:54;55.92;;;29.35;;
32319;SDS011;19080;51.750;5.888;2022-12-19T00:51:22;57.78;;;30.70;;
32319;SDS011;19080;51.750;5.888;2022-12-19T00:53:51;51.85;;;28.70;;
32319;SDS011;19080;51.750;5.888;2022-12-19T00:56:20;59.67;;;29.88;;
32319;SDS011;19080;51.750;5.888;2022-12-19T00:58:50;54.10;;;29.67;;
32319;SDS011;19080;51.750;5.888;2022-12-19T01:01:29;55.45;;;29.85;;
32319;SDS011;19080;51.750;5.888;2022-12-19T01:03:59;59.53;;;29.95;;
32319;SDS011;19080;51.750;5.888;2022-12-19T01:06:46;55.60;;;29.23;;
32319;SDS011;19080;51.750;5.888;2022-12-19T01:09:13;56.63;;;28.83;;
32319;SDS011;19080;51.750;5.888;2022-12-19T01:11:40;51.42;;;28.38;;
32319;SDS011;19080;51.750;5.888;2022-12-19T01:14:25;55.60;;;28.90;;
32319;SDS011;19080;51.750;5.888;2022-12-19T01:16:52;54.08;;;28.52;;
32319;SDS011;19080;51.750;5.888;2022-12-19T01:19:19;58.15;;;31.98;;
32319;SDS011;19080;51.750;5.888;2022-12-19T01:21:45;56.33;;;31.13;;
32319;SDS011;19080;51.750;5.888;2022-12-19T01:24:12;54.05;;;30.75;;
32319;SDS011;19080;51.750;5.888;2022-12-19T01:26:47;53.28;;;30.17;;
32319;SDS011;19080;51.750;5.888;2022-12-19T01:29:14;59.15;;;30.88;;
32319;SDS011;19080;51.750;5.888;2022-12-19T01:31:40;52.28;;;28.85;;
32319;SDS011;19080;51.750;5.888;2022-12-19T01:34:07;53.33;;;31.27;;
32319;SDS011;19080;51.750;5.888;2022-12-19T01:36:34;49.90;;;30.08;;
32319;SDS011;19080;51.750;5.888;2022-12-19T01:39:05;54.20;;;31.17;;
32319;SDS011;19080;51.750;5.888;2022-12-19T01:41:37;59.53;;;30.60;;
32319;SDS011;19080;51.750;5.888;2022-12-19T01:44:04;54.60;;;30.90;;
32319;SDS011;19080;51.750;5.888;2022-12-19T01:49:00;55.65;;;30.15;;
32319;SDS011;19080;51.750;5.888;2022-12-19T01:51:37;52.88;;;29.55;;
32319;SDS011;19080;51.750;5.888;2022-12-19T01:54:07;53.55;;;31.10;;
32319;SDS011;19080;51.750;5.888;2022-12-19T01:56:40;54.33;;;31.05;;
32319;SDS011;19080;51.750;5.888;2022-12-19T01:59:19;53.35;;;29.08;;
32319;SDS011;19080;51.750;5.888;2022-12-19T02:01:51;58.38;;;32.13;;
32319;SDS011;19080;51.750;5.888;2022-12-19T02:04:23;57.70;;;30.88;;
32319;SDS011;19080;51.750;5.888;2022-12-19T02:06:58;53.22;;;30.48;;
32319;SDS011;19080;51.750;5.888;2022-12-19T02:09:33;54.75;;;30.02;;
32319;SDS011;19080;51.750;5.888;2022-12-19T02:12:03;57.53;;;30.52;;
32319;SDS011;19080;51.750;5.888;2022-12-19T02:14:31;51.42;;;30.25;;
32319;SDS011;19080;51.750;5.888;2022-12-19T02:17:04;54.70;;;30.67;;
32319;SDS011;19080;51.750;5.888;2022-12-19T02:22:48;52.10;;;29.25;;
32319;SDS011;19080;51.750;5.888;2022-12-19T02:31:33;47.75;;;25.55;;
32319;SDS011;19080;51.750;5.888;2022-12-19T02:37:00;57.25;;;28.45;;
32319;SDS011;19080;51.750;5.888;2022-12-19T02:39:32;48.38;;;27.50;;
32319;SDS011;19080;51.750;5.888;2022-12-19T02:42:06;47.70;;;26.85;;
32319;SDS011;19080;51.750;5.888;2022-12-19T02:44:39;44.33;;;26.95;;
32319;SDS011;19080;51.750;5.888;2022-12-19T02:47:10;42.90;;;25.23;;
32319;SDS011;19080;51.750;5.888;2022-12-19T02:49:40;46.33;;;26.70;;
32319;SDS011;19080;51.750;5.888;2022-12-19T02:54:49;45.20;;;26.80;;
32319;SDS011;19080;51.750;5.888;2022-12-19T02:57:30;48.72;;;26.67;;
32319;SDS011;19080;51.750;5.888;2022-12-19T03:00:22;46.22;;;25.45;;
32319;SDS011;19080;51.750;5.888;2022-12-19T03:06:21;47.22;;;26.90;;
32319;SDS011;19080;51.750;5.888;2022-12-19T03:08:56;45.85;;;25.67;;
32319;SDS011;19080;51.750;5.888;2022-12-19T03:11:30;45.00;;;26.23;;
32319;SDS011;19080;51.750;5.888;2022-12-19T03:14:11;46.05;;;26.52;;
32319;SDS011;19080;51.750;5.888;2022-12-19T03:16:41;47.17;;;27.42;;
32319;SDS011;19080;51.750;5.888;2022-12-19T03:19:09;48.85;;;26.60;;
32319;SDS011;19080;51.750;5.888;2022-12-19T03:21:45;44.63;;;25.52;;
32319;SDS011;19080;51.750;5.888;2022-12-19T03:27:02;45.97;;;26.35;;
32319;SDS011;19080;51.750;5.888;2022-12-19T03:29:36;46.42;;;26.23;;
32319;SDS011;19080;51.750;5.888;2022-12-19T03:32:08;43.63;;;26.08;;
32319;SDS011;19080;51.750;5.888;2022-12-19T03:34:39;42.47;;;24.75;;
32319;SDS011;19080;51.750;5.888;2022-12-19T03:37:13;46.38;;;25.92;;
32319;SDS011;19080;51.750;5.888;2022-12-19T03:39:42;46.25;;;26.13;;
32319;SDS011;19080;51.750;5.888;2022-12-19T03:42:14;47.90;;;26.85;;
32319;SDS011;19080;51.750;5.888;2022-12-19T03:45:02;45.63;;;25.95;;
32319;SDS011;19080;51.750;5.888;2022-12-19T03:47:43;51.08;;;26.42;;
32319;SDS011;19080;51.750;5.888;2022-12-19T03:50:14;44.53;;;25.30;;
32319;SDS011;19080;51.750;5.888;2022-12-19T03:52:49;43.53;;;25.70;;
32319;SDS011;19080;51.750;5.888;2022-12-19T03:58:07;47.35;;;25.17;;
32319;SDS011;19080;51.750;5.888;2022-12-19T04:00:37;42.47;;;24.33;;
32319;SDS011;19080;51.750;5.888;2022-12-19T04:03:08;42.13;;;24.30;;
32319;SDS011;19080;51.750;5.888;2022-12-19T04:05:36;40.65;;;25.08;;
32319;SDS011;19080;51.750;5.888;2022-12-19T04:08:05;45.67;;;27.48;;
32319;SDS011;19080;51.750;5.888;2022-12-19T04:10:34;46.67;;;25.08;;
32319;SDS011;19080;51.750;5.888;2022-12-19T04:13:09;47.10;;;25.35;;
32319;SDS011;19080;51.750;5.888;2022-12-19T04:18:27;41.95;;;24.13;;
32319;SDS011;19080;51.750;5.888;2022-12-19T04:20:58;46.38;;;24.85;;
32319;SDS011;19080;51.750;5.888;2022-12-19T04:23:32;44.22;;;24.85;;
32319;SDS011;19080;51.750;5.888;2022-12-19T04:26:03;37.47;;;24.85;;
32319;SDS011;19080;51.750;5.888;2022-12-19T04:28:35;41.95;;;24.30;;
32319;SDS011;19080;51.750;5.888;2022-12-19T04:31:06;38.58;;;23.30;;
32319;SDS011;19080;51.750;5.888;2022-12-19T04:33:40;41.33;;;24.83;;
32319;SDS011;19080;51.750;5.888;2022-12-19T04:36:06;39.10;;;23.73;;
32319;SDS011;19080;51.750;5.888;2022-12-19T04:38:33;40.45;;;24.33;;
32319;SDS011;19080;51.750;5.888;2022-12-19T04:41:00;38.38;;;24.08;;
32319;SDS011;19080;51.750;5.888;2022-12-19T04:43:27;39.53;;;24.60;;
32319;SDS011;19080;51.750;5.888;2022-12-19T04:45:53;45.65;;;25.08;;
32319;SDS011;19080;51.750;5.888;2022-12-19T04:48:23;39.35;;;24.02;;
32319;SDS011;19080;51.750;5.888;2022-12-19T04:50:50;42.15;;;24.30;;
32319;SDS011;19080;51.750;5.888;2022-12-19T04:53:16;35.28;;;22.50;;
32319;SDS011;19080;51.750;5.888;2022-12-19T04:55:43;38.75;;;24.10;;
32319;SDS011;19080;51.750;5.888;2022-12-19T04:58:10;39.28;;;24.58;;
32319;SDS011;19080;51.750;5.888;2022-12-19T05:00:37;41.55;;;24.25;;
32319;SDS011;19080;51.750;5.888;2022-12-19T05:03:03;40.30;;;24.13;;
32319;SDS011;19080;51.750;5.888;2022-12-19T05:05:30;38.60;;;23.15;;
32319;SDS011;19080;51.750;5.888;2022-12-19T05:07:56;36.95;;;23.75;;
32319;SDS011;19080;51.750;5.888;2022-12-19T05:10:23;35.28;;;22.73;;
32319;SDS011;19080;51.750;5.888;2022-12-19T05:12:50;36.28;;;21.27;;
32319;SDS011;19080;51.750;5.888;2022-12-19T05:15:16;35.45;;;22.55;;
32319;SDS011;19080;51.750;5.888;2022-12-19T05:17:43;36.42;;;22.60;;
32319;SDS011;19080;51.750;5.888;2022-12-19T05:20:09;39.10;;;23.25;;
32319;SDS011;19080;51.750;5.888;2022-12-19T05:22:36;33.80;;;22.98;;
32319;SDS011;19080;51.750;5.888;2022-12-19T05:25:03;35.08;;;21.60;;
32319;SDS011;19080;51.750;5.888;2022-12-19T05:27:30;36.30;;;22.23;;
32319;SDS011;19080;51.750;5.888;2022-12-19T05:29:56;36.17;;;22.40;;
32319;SDS011;19080;51.750;5.888;2022-12-19T05:32:23;32.92;;;21.65;;
32319;SDS011;19080;51.750;5.888;2022-12-19T05:34:49;28.65;;;20.10;;
32319;SDS011;19080;51.750;5.888;2022-12-19T05:37:16;33.92;;;21.52;;
32319;SDS011;19080;51.750;5.888;2022-12-19T05:39:42;29.60;;;20.10;;
32319;SDS011;19080;51.750;5.888;2022-12-19T05:42:09;34.83;;;21.45;;
32319;SDS011;19080;51.750;5.888;2022-12-19T05:44:37;33.63;;;21.00;;
32319;SDS011;19080;51.750;5.888;2022-12-19T05:47:04;27.40;;;18.77;;
32319;SDS011;19080;51.750;5.888;2022-12-19T05:49:31;28.55;;;19.33;;
32319;SDS011;19080;51.750;5.888;2022-12-19T05:51:57;30.23;;;19.52;;
32319;SDS011;19080;51.750;5.888;2022-12-19T05:54:24;28.83;;;19.10;;
32319;SDS011;19080;51.750;5.888;2022-12-19T05:56:51;27.77;;;19.88;;
32319;SDS011;19080;51.750;5.888;2022-12-19T05:59:17;27.00;;;19.48;;
32319;SDS011;19080;51.750;5.888;2022-12-19T06:01:44;30.38;;;19.70;;
32319;SDS011;19080;51.750;5.888;2022-12-19T06:04:10;24.10;;;17.08;;
32319;SDS011;19080;51.750;5.888;2022-12-19T06:06:37;24.40;;;17.73;;
32319;SDS011;19080;51.750;5.888;2022-12-19T06:09:03;25.63;;;17.90;;
32319;SDS011;19080;51.750;5.888;2022-12-19T06:11:30;28.83;;;19.13;;
32319;SDS011;19080;51.750;5.888;2022-12-19T06:13:56;30.52;;;19.85;;
32319;SDS011;19080;51.750;5.888;2022-12-19T06:16:23;26.52;;;18.48;;
32319;SDS011;19080;51.750;5.888;2022-12-19T06:18:50;25.88;;;19.13;;
32319;SDS011;19080;51.750;5.888;2022-12-19T06:21:17;25.00;;;17.50;;
32319;SDS011;19080;51.750;5.888;2022-12-19T06:23:46;27.00;;;17.95;;
32319;SDS011;19080;51.750;5.888;2022-12-19T06:26:14;26.30;;;18.20;;
32319;SDS011;19080;51.750;5.888;2022-12-19T06:28:49;24.98;;;17.17;;
32319;SDS011;19080;51.750;5.888;2022-12-19T06:31:18;25.40;;;17.33;;
32319;SDS011;19080;51.750;5.888;2022-12-19T06:33:45;25.55;;;17.17;;
32319;SDS011;19080;51.750;5.888;2022-12-19T06:36:13;23.27;;;15.40;;
32319;SDS011;19080;51.750;5.888;2022-12-19T06:38:47;21.98;;;14.98;;
32319;SDS011;19080;51.750;5.888;2022-12-19T06:41:15;21.30;;;14.60;;
32319;SDS011;19080;51.750;5.888;2022-12-19T06:44:01;22.40;;;15.18;;
32319;SDS011;19080;51.750;5.888;2022-12-19T06:46:31;20.08;;;14.55;;
32319;SDS011;19080;51.750;5.888;2022-12-19T06:48:58;20.33;;;14.38;;
32319;SDS011;19080;51.750;5.888;2022-12-19T06:51:24;20.70;;;14.75;;
32319;SDS011;19080;51.750;5.888;2022-12-19T06:53:51;23.25;;;15.25;;
32319;SDS011;19080;51.750;5.888;2022-12-19T06:56:18;21.42;;;14.57;;
32319;SDS011;19080;51.750;5.888;2022-12-19T06:58:45;19.95;;;14.48;;
32319;SDS011;19080;51.750;5.888;2022-12-19T07:01:16;20.30;;;14.70;;
32319;SDS011;19080;51.750;5.888;2022-12-19T07:04:02;17.75;;;13.48;;
32319;SDS011;19080;51.750;5.888;2022-12-19T07:06:28;19.42;;;14.65;;
32319;SDS011;19080;51.750;5.888;2022-12-19T07:08:55;17.77;;;12.55;;
32319;SDS011;19080;51.750;5.888;2022-12-19T07:11:22;18.00;;;12.55;;
32319;SDS011;19080;51.750;5.888;2022-12-19T07:13:56;17.75;;;11.50;;
32319;SDS011;19080;51.750;5.888;2022-12-19T07:16:23;16.38;;;11.20;;
32319;SDS011;19080;51.750;5.888;2022-12-19T07:18:52;15.20;;;10.65;;
32319;SDS011;19080;51.750;5.888;2022-12-19T07:21:19;13.80;;;9.75;;
32319;SDS011;19080;51.750;5.888;2022-12-19T07:23:45;13.82;;;10.07;;
32319;SDS011;19080;51.750;5.888;2022-12-19T07:26:12;13.55;;;9.30;;
32319;SDS011;19080;51.750;5.888;2022-12-19T07:31:33;11.60;;;9.18;;
32319;SDS011;19080;51.750;5.888;2022-12-19T07:34:00;15.85;;;9.98;;
32319;SDS011;19080;51.750;5.888;2022-12-19T07:36:27;11.63;;;8.25;;
32319;SDS011;19080;51.750;5.888;2022-12-19T07:38:53;15.27;;;9.00;;
32319;SDS011;19080;51.750;5.888;2022-12-19T07:41:20;10.65;;;8.02;;
32319;SDS011;19080;51.750;5.888;2022-12-19T07:43:46;11.02;;;7.15;;
32319;SDS011;19080;51.750;5.888;2022-12-19T07:46:13;12.52;;;8.30;;
32319;SDS011;19080;51.750;5.888;2022-12-19T07:48:40;11.77;;;8.52;;
32319;SDS011;19080;51.750;5.888;2022-12-19T07:51:06;10.57;;;7.78;;
32319;SDS011;19080;51.750;5.888;2022-12-19T07:53:33;10.65;;;7.53;;
32319;SDS011;19080;51.750;5.888;2022-12-19T07:55:59;9.93;;;7.80;;
32319;SDS011;19080;51.750;5.888;2022-12-19T07:58:26;11.13;;;8.00;;
32319;SDS011;19080;51.750;5.888;2022-12-19T08:00:53;9.95;;;7.38;;
32319;SDS011;19080;51.750;5.888;2022-12-19T08:03:21;9.75;;;7.68;;
32319;SDS011;19080;51.750;5.888;2022-12-19T08:05:48;10.95;;;7.38;;
32319;SDS011;19080;51.750;5.888;2022-12-19T08:08:14;8.20;;;7.00;;
32319;SDS011;19080;51.750;5.888;2022-12-19T08:10:42;10.55;;;7.40;;
32319;SDS011;19080;51.750;5.888;2022-12-19T08:13:09;8.63;;;7.15;;
32319;SDS011;19080;51.750;5.888;2022-12-19T08:15:35;11.98;;;7.55;;
32319;SDS011;19080;51.750;5.888;2022-12-19T08:18:02;11.85;;;6.57;;
32319;SDS011;19080;51.750;5.888;2022-12-19T08:20:30;9.10;;;6.70;;
32319;SDS011;19080;51.750;5.888;2022-12-19T08:22:56;12.70;;;7.53;;
32319;SDS011;19080;51.750;5.888;2022-12-19T08:25:23;7.30;;;6.50;;
32319;SDS011;19080;51.750;5.888;2022-12-19T08:27:50;8.10;;;5.97;;
32319;SDS011;19080;51.750;5.888;2022-12-19T08:30:16;8.95;;;6.85;;
32319;SDS011;19080;51.750;5.888;2022-12-19T08:32:44;9.75;;;7.80;;
32319;SDS011;19080;51.750;5.888;2022-12-19T08:35:11;8.90;;;6.80;;
32319;SDS011;19080;51.750;5.888;2022-12-19T08:37:37;8.90;;;6.53;;
32319;SDS011;19080;51.750;5.888;2022-12-19T08:40:04;9.45;;;7.18;;
32319;SDS011;19080;51.750;5.888;2022-12-19T08:42:32;9.32;;;7.03;;
32319;SDS011;19080;51.750;5.888;2022-12-19T08:44:59;8.40;;;6.47;;
32319;SDS011;19080;51.750;5.888;2022-12-19T08:47:25;7.95;;;6.78;;
32319;SDS011;19080;51.750;5.888;2022-12-19T08:49:52;8.13;;;6.10;;
32319;SDS011;19080;51.750;5.888;2022-12-19T08:52:19;8.73;;;6.28;;
32319;SDS011;19080;51.750;5.888;2022-12-19T08:54:46;9.32;;;7.15;;
32319;SDS011;19080;51.750;5.888;2022-12-19T08:57:12;9.52;;;6.95;;
32319;SDS011;19080;51.750;5.888;2022-12-19T08:59:39;10.30;;;7.03;;
32319;SDS011;19080;51.750;5.888;2022-12-19T09:02:07;10.75;;;6.38;;
32319;SDS011;19080;51.750;5.888;2022-12-19T09:04:35;10.32;;;6.35;;
32319;SDS011;19080;51.750;5.888;2022-12-19T09:07:22;8.55;;;6.55;;
32319;SDS011;19080;51.750;5.888;2022-12-19T09:09:49;11.02;;;7.20;;
32319;SDS011;19080;51.750;5.888;2022-12-19T09:12:16;8.63;;;7.28;;
32319;SDS011;19080;51.750;5.888;2022-12-19T09:14:42;10.05;;;7.38;;
32319;SDS011;19080;51.750;5.888;2022-12-19T09:17:09;7.88;;;6.60;;
32319;SDS011;19080;51.750;5.888;2022-12-19T09:19:36;11.25;;;6.97;;
32319;SDS011;19080;51.750;5.888;2022-12-19T09:22:04;8.40;;;6.32;;
32319;SDS011;19080;51.750;5.888;2022-12-19T09:24:30;7.82;;;6.60;;
32319;SDS011;19080;51.750;5.888;2022-12-19T09:26:57;9.02;;;7.03;;
32319;SDS011;19080;51.750;5.888;2022-12-19T09:29:23;7.35;;;6.32;;
32319;SDS011;19080;51.750;5.888;2022-12-19T09:31:50;11.10;;;7.07;;
32319;SDS011;19080;51.750;5.888;2022-12-19T09:34:23;8.87;;;7.03;;
32319;SDS011;19080;51.750;5.888;2022-12-19T09:37:07;9.77;;;6.80;;
32319;SDS011;19080;51.750;5.888;2022-12-19T09:39:42;7.28;;;6.13;;
32319;SDS011;19080;51.750;5.888;2022-12-19T09:47:57;9.68;;;6.50;;
32319;SDS011;19080;51.750;5.888;2022-12-19T09:50:27;8.27;;;6.55;;
32319;SDS011;19080;51.750;5.888;2022-12-19T09:56:22;10.60;;;7.45;;
32319;SDS011;19080;51.750;5.888;2022-12-19T09:58:57;8.65;;;5.97;;
32319;SDS011;19080;51.750;5.888;2022-12-19T10:01:46;8.27;;;6.10;;
32319;SDS011;19080;51.750;5.888;2022-12-19T10:04:19;6.47;;;5.78;;
32319;SDS011;19080;51.750;5.888;2022-12-19T10:06:49;9.10;;;6.25;;
32319;SDS011;19080;51.750;5.888;2022-12-19T10:09:36;6.30;;;5.53;;
32319;SDS011;19080;51.750;5.888;2022-12-19T10:12:31;7.20;;;5.72;;
32319;SDS011;19080;51.750;5.888;2022-12-19T10:18:48;10.60;;;6.82;;
32319;SDS011;19080;51.750;5.888;2022-12-19T10:21:33;6.85;;;5.60;;
32319;SDS011;19080;51.750;5.888;2022-12-19T10:27:40;7.95;;;5.30;;
32319;SDS011;19080;51.750;5.888;2022-12-19T10:30:25;6.45;;;5.55;;
32319;SDS011;19080;51.750;5.888;2022-12-19T10:33:00;8.05;;;5.35;;
32319;SDS011;19080;51.750;5.888;2022-12-19T10:35:53;7.35;;;5.75;;
32319;SDS011;19080;51.750;5.888;2022-12-19T10:38:35;7.57;;;5.57;;
32319;SDS011;19080;51.750;5.888;2022-12-19T10:41:19;7.38;;;5.50;;
32319;SDS011;19080;51.750;5.888;2022-12-19T10:49:18;6.38;;;4.80;;
32319;SDS011;19080;51.750;5.888;2022-12-19T10:52:05;5.97;;;5.03;;
32319;SDS011;19080;51.750;5.888;2022-12-19T10:59:58;6.18;;;4.53;;
32319;SDS011;19080;51.750;5.888;2022-12-19T11:05:21;6.93;;;4.80;;
32319;SDS011;19080;51.750;5.888;2022-12-19T11:08:00;7.00;;;4.65;;
32319;SDS011;19080;51.750;5.888;2022-12-19T11:10:43;8.45;;;4.40;;
32319;SDS011;19080;51.750;5.888;2022-12-19T11:13:38;8.10;;;4.97;;
32319;SDS011;19080;51.750;5.888;2022-12-19T11:16:32;7.30;;;4.47;;
32319;SDS011;19080;51.750;5.888;2022-12-19T11:19:37;9.52;;;5.20;;
32319;SDS011;19080;51.750;5.888;2022-12-19T11:22:25;6.43;;;5.13;;
32319;SDS011;19080;51.750;5.888;2022-12-19T11:25:16;6.53;;;4.88;;
32319;SDS011;19080;51.750;5.888;2022-12-19T11:31:09;9.35;;;4.78;;
32319;SDS011;19080;51.750;5.888;2022-12-19T11:34:17;4.70;;;4.13;;
32319;SDS011;19080;51.750;5.888;2022-12-19T11:36:58;5.50;;;4.70;;
32319;SDS011;19080;51.750;5.888;2022-12-19T11:39:37;5.88;;;4.88;;
32319;SDS011;19080;51.750;5.888;2022-12-19T11:42:11;7.22;;;4.55;;
32319;SDS011;19080;51.750;5.888;2022-12-19T11:44:48;6.28;;;4.90;;
32319;SDS011;19080;51.750;5.888;2022-12-19T11:49:58;6.97;;;4.65;;
32319;SDS011;19080;51.750;5.888;2022-12-19T11:53:04;6.57;;;4.50;;
32319;SDS011;19080;51.750;5.888;2022-12-19T11:58:04;5.70;;;4.63;;
32319;SDS011;19080;51.750;5.888;2022-12-19T12:00:35;6.22;;;4.20;;
32319;SDS011;19080;51.750;5.888;2022-12-19T12:05:50;8.63;;;4.60;;
32319;SDS011;19080;51.750;5.888;2022-12-19T12:08:24;6.57;;;4.50;;
32319;SDS011;19080;51.750;5.888;2022-12-19T12:11:44;5.03;;;4.03;;
32319;SDS011;19080;51.750;5.888;2022-12-19T12:23:54;4.32;;;3.58;;
32319;SDS011;19080;51.750;5.888;2022-12-19T12:30:08;5.85;;;3.60;;
32319;SDS011;19080;51.750;5.888;2022-12-19T12:36:42;8.05;;;4.15;;
32319;SDS011;19080;51.750;5.888;2022-12-19T12:43:03;4.93;;;3.70;;
32319;SDS011;19080;51.750;5.888;2022-12-19T12:45:42;6.43;;;3.97;;
32319;SDS011;19080;51.750;5.888;2022-12-19T12:50:46;4.90;;;3.90;;
32319;SDS011;19080;51.750;5.888;2022-12-19T12:53:22;9.02;;;4.03;;
32319;SDS011;19080;51.750;5.888;2022-12-19T12:55:53;5.67;;;3.50;;
32319;SDS011;19080;51.750;5.888;2022-12-19T13:03:54;4.20;;;3.28;;
32319;SDS011;19080;51.750;5.888;2022-12-19T13:09:39;4.05;;;3.30;;
32319;SDS011;19080;51.750;5.888;2022-12-19T13:15:31;4.60;;;3.38;;
32319;SDS011;19080;51.750;5.888;2022-12-19T13:20:54;3.97;;;3.20;;
32319;SDS011;19080;51.750;5.888;2022-12-19T13:42:37;8.32;;;4.72;;
32319;SDS011;19080;51.750;5.888;2022-12-19T13:45:37;4.50;;;3.85;;
32319;SDS011;19080;51.750;5.888;2022-12-19T13:48:11;4.63;;;4.20;;
32319;SDS011;19080;51.750;5.888;2022-12-19T13:50:41;6.97;;;3.78;;
32319;SDS011;19080;51.750;5.888;2022-12-19T13:53:15;4.55;;;3.60;;
32319;SDS011;19080;51.750;5.888;2022-12-19T13:55:43;5.55;;;3.60;;
32319;SDS011;19080;51.750;5.888;2022-12-19T13:58:21;5.55;;;3.50;;
32319;SDS011;19080;51.750;5.888;2022-12-19T14:00:55;5.40;;;3.70;;
32319;SDS011;19080;51.750;5.888;2022-12-19T14:03:34;4.53;;;3.70;;
32319;SDS011;19080;51.750;5.888;2022-12-19T14:06:07;4.90;;;3.85;;
32319;SDS011;19080;51.750;5.888;2022-12-19T14:08:44;4.03;;;3.40;;
32319;SDS011;19080;51.750;5.888;2022-12-19T14:11:14;6.05;;;3.55;;
32319;SDS011;19080;51.750;5.888;2022-12-19T14:14:03;5.72;;;3.22;;
32319;SDS011;19080;51.750;5.888;2022-12-19T14:16:54;5.60;;;3.90;;
32319;SDS011;19080;51.750;5.888;2022-12-19T14:19:35;3.90;;;3.30;;
32319;SDS011;19080;51.750;5.888;2022-12-19T14:22:11;3.72;;;3.35;;
32319;SDS011;19080;51.750;5.888;2022-12-19T14:24:55;6.75;;;3.65;;
32319;SDS011;19080;51.750;5.888;2022-12-19T14:27:44;6.60;;;3.55;;
32319;SDS011;19080;51.750;5.888;2022-12-19T14:30:37;4.35;;;3.10;;
32319;SDS011;19080;51.750;5.888;2022-12-19T14:33:12;5.70;;;3.22;;
32319;SDS011;19080;51.750;5.888;2022-12-19T14:36:02;4.90;;;3.22;;
32319;SDS011;19080;51.750;5.888;2022-12-19T14:38:43;7.55;;;3.90;;
32319;SDS011;19080;51.750;5.888;2022-12-19T14:41:36;4.57;;;3.60;;
32319;SDS011;19080;51.750;5.888;2022-12-19T14:47:36;5.00;;;3.55;;
32319;SDS011;19080;51.750;5.888;2022-12-19T14:53:14;7.85;;;4.18;;
32319;SDS011;19080;51.750;5.888;2022-12-19T14:56:07;4.88;;;4.15;;
32319;SDS011;19080;51.750;5.888;2022-12-19T14:58:57;5.30;;;3.85;;
32319;SDS011;19080;51.750;5.888;2022-12-19T15:01:29;8.35;;;4.60;;
32319;SDS011;19080;51.750;5.888;2022-12-19T15:04:06;6.30;;;3.75;;
32319;SDS011;19080;51.750;5.888;2022-12-19T15:07:02;6.68;;;4.03;;
32319;SDS011;19080;51.750;5.888;2022-12-19T15:09:42;5.15;;;3.85;;
32319;SDS011;19080;51.750;5.888;2022-12-19T15:15:58;7.30;;;3.97;;
32319;SDS011;19080;51.750;5.888;2022-12-19T15:18:35;5.40;;;3.50;;
32319;SDS011;19080;51.750;5.888;2022-12-19T15:21:06;4.55;;;3.65;;
32319;SDS011;19080;51.750;5.888;2022-12-19T15:23:35;3.47;;;3.17;;
32319;SDS011;19080;51.750;5.888;2022-12-19T15:26:03;4.68;;;3.38;;
32319;SDS011;19080;51.750;5.888;2022-12-19T15:28:40;7.38;;;4.13;;
32319;SDS011;19080;51.750;5.888;2022-12-19T15:31:11;4.30;;;3.28;;
32319;SDS011;19080;51.750;5.888;2022-12-19T15:33:39;4.47;;;3.85;;
32319;SDS011;19080;51.750;5.888;2022-12-19T15:36:26;5.85;;;3.40;;
32319;SDS011;19080;51.750;5.888;2022-12-19T15:38:52;6.32;;;3.13;;
32319;SDS011;19080;51.750;5.888;2022-12-19T15:41:20;4.45;;;3.13;;
32319;SDS011;19080;51.750;5.888;2022-12-19T15:43:49;5.53;;;3.78;;
32319;SDS011;19080;51.750;5.888;2022-12-19T15:46:33;5.43;;;3.30;;
32319;SDS011;19080;51.750;5.888;2022-12-19T15:48:59;7.05;;;4.50;;
32319;SDS011;19080;51.750;5.888;2022-12-19T15:51:27;5.45;;;3.50;;
32319;SDS011;19080;51.750;5.888;2022-12-19T15:53:53;3.83;;;3.22;;
32319;SDS011;19080;51.750;5.888;2022-12-19T15:56:50;4.32;;;3.08;;
32319;SDS011;19080;51.750;5.888;2022-12-19T16:02:07;4.55;;;3.33;;
32319;SDS011;19080;51.750;5.888;2022-12-19T16:04:41;7.03;;;2.88;;
32319;SDS011;19080;51.750;5.888;2022-12-19T16:07:13;3.28;;;2.75;;
32319;SDS011;19080;51.750;5.888;2022-12-19T16:09:40;4.90;;;2.78;;
32319;SDS011;19080;51.750;5.888;2022-12-19T16:12:08;6.22;;;3.28;;
32319;SDS011;19080;51.750;5.888;2022-12-19T16:14:39;5.28;;;3.13;;
32319;SDS011;19080;51.750;5.888;2022-12-19T16:17:08;3.90;;;3.20;;
32319;SDS011;19080;51.750;5.888;2022-12-19T16:19:39;4.80;;;3.50;;
32319;SDS011;19080;51.750;5.888;2022-12-19T16:24:59;4.35;;;3.13;;
32319;SDS011;19080;51.750;5.888;2022-12-19T16:27:26;4.97;;;2.97;;
32319;SDS011;19080;51.750;5.888;2022-12-19T16:29:54;10.63;;;7.28;;
32319;SDS011;19080;51.750;5.888;2022-12-19T16:32:23;5.70;;;4.50;;
32319;SDS011;19080;51.750;5.888;2022-12-19T16:34:51;6.15;;;4.25;;
32319;SDS011;19080;51.750;5.888;2022-12-19T16:37:18;5.28;;;3.63;;
32319;SDS011;19080;51.750;5.888;2022-12-19T16:39:44;7.95;;;5.45;;
32319;SDS011;19080;51.750;5.888;2022-12-19T16:42:14;12.57;;;6.47;;
32319;SDS011;19080;51.750;5.888;2022-12-19T16:44:44;5.90;;;4.38;;
32319;SDS011;19080;51.750;5.888;2022-12-19T16:47:14;7.85;;;5.13;;
32319;SDS011;19080;51.750;5.888;2022-12-19T16:49:44;5.45;;;3.30;;
32319;SDS011;19080;51.750;5.888;2022-12-19T16:52:11;6.28;;;4.10;;
32319;SDS011;19080;51.750;5.888;2022-12-19T16:54:37;5.47;;;4.20;;
32319;SDS011;19080;51.750;5.888;2022-12-19T16:57:05;8.07;;;4.47;;
32319;SDS011;19080;51.750;5.888;2022-12-19T16:59:40;7.82;;;4.60;;
32319;SDS011;19080;51.750;5.888;2022-12-19T17:02:20;9.85;;;4.93;;
32319;SDS011;19080;51.750;5.888;2022-12-19T17:05:16;11.25;;;8.55;;
32319;SDS011;19080;51.750;5.888;2022-12-19T17:07:47;8.93;;;4.45;;
32319;SDS011;19080;51.750;5.888;2022-12-19T17:10:14;9.20;;;5.40;;
32319;SDS011;19080;51.750;5.888;2022-12-19T17:12:51;5.30;;;3.97;;
32319;SDS011;19080;51.750;5.888;2022-12-19T17:15:28;4.57;;;3.58;;
32319;SDS011;19080;51.750;5.888;2022-12-19T17:18:00;5.47;;;3.53;;
32319;SDS011;19080;51.750;5.888;2022-12-19T17:20:34;5.90;;;3.90;;
32319;SDS011;19080;51.750;5.888;2022-12-19T17:23:15;6.68;;;3.03;;
32319;SDS011;19080;51.750;5.888;2022-12-19T17:25:43;4.88;;;3.15;;
32319;SDS011;19080;51.750;5.888;2022-12-19T17:28:11;3.97;;;2.97;;
32319;SDS011;19080;51.750;5.888;2022-12-19T17:30:38;5.35;;;2.83;;
32319;SDS011;19080;51.750;5.888;2022-12-19T17:33:07;3.50;;;2.63;;